Time;durP1;ratioP1;P1;durP2;ratioP2;P2;SDS_P1;SDS_P2;PMS_P1;PMS_P2;Temp;Humidity;BMP_temperature;BMP_pressure;BME280_temperature;BME280_humidity;BME280_pressure;Samples;Min_cycle;Max_cycle;Signal;HPM_P1;HPM_P2
2021/12/17 00:00:47;;;;;;;43.25;20.45;;;;;;;;;;5029839;28;20038;-57
2021/12/17 00:03:20;;;;;;;42.65;21.30;;;;;;;;;;5029683;28;20411;-54
2021/12/17 00:08:17;;;;;;;48.78;22.92;;;;;;;;;;5030230;28;20045;-56
2021/12/17 00:10:44;;;;;;;40.95;20.60;;;;;;;;;;5030007;28;20081;-54
2021/12/17 00:13:10;;;;;;;42.72;20.05;;;9.30;99.90;;;;;;5030125;28;20487;-56
2021/12/17 00:15:37;;;;;;;42.95;19.80;;;;;;;;;;5028872;28;20038;-56
2021/12/17 00:18:11;;;;;;;51.83;22.65;;;;;;;;;;5030465;28;20053;-58
2021/12/17 00:48:45;;;;;;;;;;;9.20;99.90;;;;;;5025069;28;20049;-58
2021/12/17 00:51:29;;;;;;;31.75;15.18;;;;;;;;;;5005987;28;20363;-57
2021/12/17 00:53:44;;;;;;;35.08;17.38;;;;;;;;;;5029840;28;20116;-58
2021/12/17 00:56:10;;;;;;;37.42;17.17;;;;;;;;;;5011477;28;20084;-57
2021/12/17 00:58:36;;;;;;;33.15;16.45;;;;;;;;;;5030049;28;20048;-57
2021/12/17 01:01:03;;;;;;;32.95;17.50;;;9.00;99.90;;;;;;5028089;28;20037;-57
2021/12/17 01:03:29;;;;;;;40.83;18.80;;;;;;;;;;5028924;28;20124;-62
2021/12/17 01:05:54;;;;;;;35.55;17.58;;;9.00;99.90;;;;;;5029617;28;20045;-58
2021/12/17 01:08:20;;;;;;;39.05;18.58;;;;;;;;;;5029910;28;20042;-57
2021/12/17 01:10:52;;;;;;;26.83;14.60;;;9.00;99.90;;;;;;5029664;28;20041;-57
2021/12/17 01:13:19;;;;;;;35.22;17.13;;;8.90;99.90;;;;;;5029545;28;20037;-57
2021/12/17 01:15:45;;;;;;;35.67;16.92;;;;;;;;;;5027814;28;20125;-57
2021/12/17 01:18:15;;;;;;;46.63;19.95;;;;;;;;;;5028704;28;20491;-56
2021/12/17 01:23:57;;;;;;;28.75;14.90;;;;;;;;;;5030042;28;20411;-56
2021/12/17 01:38:18;;;;;;;30.42;14.77;;;;;;;;;;5029874;28;20085;-57
2021/12/17 01:42:39;;;;;;;31.92;14.90;;;;;;;;;;5022997;28;20419;-57
2021/12/17 01:45:06;;;;;;;25.95;14.27;;;;;;;;;;5028803;28;20045;-57
2021/12/17 01:47:32;;;;;;;30.95;15.07;;;;;;;;;;5030130;28;20351;-56
2021/12/17 02:00:57;;;;;;;30.92;15.80;;;;;;;;;;5032260;28;20041;-56
2021/12/17 02:03:24;;;;;;;34.35;15.68;;;;;;;;;;5033695;28;20052;-57
2021/12/17 02:05:50;;;;;;;35.03;16.10;;;8.90;99.90;;;;;;5032439;28;20089;-58
2021/12/17 02:08:16;;;;;;;31.88;16.05;;;;;;;;;;5033364;28;20069;-58
2021/12/17 02:32:07;;;;;;;29.17;15.18;;;9.00;99.90;;;;;;5032593;28;20106;-57
2021/12/17 02:37:05;;;;;;;27.35;14.35;;;;;;;;;;5032150;28;20042;-56
2021/12/17 02:47:28;;;;;;;28.40;13.85;;;9.00;99.90;;;;;;5033195;28;20083;-57
2021/12/17 02:49:55;;;;;;;34.22;14.95;;;;;;;;;;5031620;28;20124;-57
2021/12/17 02:52:26;;;;;;;35.75;15.23;;;8.20;99.90;;;;;;5032259;28;20037;-57
2021/12/17 02:54:52;;;;;;;32.30;14.80;;;;;;;;;;5031058;28;20496;-56
2021/12/17 02:57:18;;;;;;;40.08;16.73;;;;;;;;;;5031965;28;20033;-57
2021/12/17 02:59:44;;;;;;;34.08;14.75;;;;;;;;;;5031312;28;20041;-56
2021/12/17 03:02:11;;;;;;;33.97;13.70;;;8.70;99.90;;;;;;5030648;28;20181;-57
2021/12/17 03:04:40;;;;;;;31.77;13.98;;;;;;;;;;5031774;28;20457;-56
2021/12/17 03:07:06;;;;;;;32.13;14.95;;;;;;;;;;5032340;28;20045;-58
2021/12/17 03:09:51;;;;;;;35.58;14.90;;;;;;;;;;5013606;28;20046;-57
2021/12/17 03:12:24;;;;;;;45.78;17.13;;;;;;;;;;5015012;28;20789;-56
2021/12/17 03:14:58;;;;;;;39.75;17.08;;;;;;;;;;5031632;28;20046;-57
2021/12/17 03:17:51;;;;;;;36.58;15.57;;;;;;;;;;5031561;28;20041;-57
2021/12/17 03:25:42;;;;;;;31.83;14.68;;;;;;;;;;5029637;28;20057;-57
2021/12/17 03:28:08;;;;;;;37.67;15.20;;;8.90;99.90;;;;;;5031373;28;20396;-55
2021/12/17 03:30:34;;;;;;;36.53;14.93;;;8.80;99.90;;;;;;5031190;28;20034;-57
2021/12/17 03:32:59;;;;;;;32.92;13.50;;;;;;;;;;5032044;28;20045;-57
2021/12/17 03:35:26;;;;;;;36.63;14.63;;;;;;;;;;5013201;28;20041;-57
2021/12/17 03:37:52;;;;;;;34.78;14.05;;;;;;;;;;5031335;28;20515;-57
2021/12/17 03:40:20;;;;;;;31.98;13.65;;;;;;;;;;5014058;28;20049;-56
2021/12/17 03:42:48;;;;;;;28.65;11.93;;;;;;;;;;5030848;28;20511;-58
2021/12/17 03:45:16;;;;;;;32.03;12.15;;;9.00;99.90;;;;;;5030158;28;20089;-57
2021/12/17 03:47:42;;;;;;;32.08;12.38;;;;;;;;;;5014342;28;20054;-57
2021/12/17 03:50:08;;;;;;;29.92;12.13;;;;;;;;;;5031808;28;20045;-56
2021/12/17 03:52:35;;;;;;;29.40;12.38;;;;;;;;;;5031498;28;20044;-56
2021/12/17 03:55:01;;;;;;;28.92;11.95;;;;;;;;;;5030469;28;20042;-56
2021/12/17 03:57:27;;;;;;;43.22;15.02;;;;;;;;;;5031576;28;20116;-56
2021/12/17 03:59:53;;;;;;;42.35;15.52;;;;;;;;;;5029550;28;20045;-57
2021/12/17 04:02:19;;;;;;;38.83;13.00;;;;;;;;;;5030915;28;20488;-56
2021/12/17 04:04:45;;;;;;;52.38;15.93;;;;;;;;;;5029992;28;20096;-55
2021/12/17 04:07:10;;;;;;;39.85;14.02;;;8.80;99.90;;;;;;5031038;28;20053;-56
2021/12/17 04:09:36;;;;;;;35.03;12.20;;;;;;;;;;5030271;28;20033;-54
2021/12/17 04:12:07;;;;;;;48.67;16.30;;;;;;;;;;5031082;28;20041;-56
2021/12/17 04:14:41;;;;;;;38.50;13.75;;;;;;;;;;5029574;28;20438;-54
2021/12/17 04:17:07;;;;;;;33.63;12.43;;;;;;;;;;5031361;28;20068;-55
2021/12/17 04:19:34;;;;;;;31.90;12.93;;;8.80;99.90;;;;;;5030416;28;20407;-56
2021/12/17 04:22:00;;;;;;;37.10;13.18;;;;;;;;;;5029048;28;20034;-54
2021/12/17 04:24:27;;;;;;;40.08;13.85;;;;;;;;;;5012267;28;20041;-53
2021/12/17 04:26:53;;;;;;;34.55;11.63;;;;;;;;;;5030228;28;20046;-58
2021/12/17 04:29:20;;;;;;;38.83;12.52;;;;;;;;;;5029813;28;20052;-56
2021/12/17 04:31:55;;;;;;;52.47;15.30;;;;;;;;;;5030151;28;20120;-56
2021/12/17 04:34:22;;;;;;;32.47;11.27;;;8.90;99.90;;;;;;5030451;28;20420;-57
2021/12/17 04:36:51;;;;;;;31.90;12.57;;;;;;;;;;5030491;28;20045;-57
2021/12/17 04:39:18;;;;;;;44.10;13.63;;;;;;;;;;5029730;28;20057;-55
2021/12/17 04:41:53;;;;;;;36.63;13.48;;;8.80;99.90;;;;;;5011912;28;20041;-55
2021/12/17 04:44:42;;;;;;;50.35;14.77;;;8.70;99.90;;;;;;5011616;28;20466;-58
2021/12/17 04:58:00;;;;;;;42.03;14.50;;;;;;;;;;5030633;28;20041;-57
2021/12/17 05:00:28;;;;;;;38.53;14.13;;;;;;;;;;5029671;28;20052;-56
2021/12/17 05:03:01;;;;;;;33.47;12.70;;;;;;;;;;5022525;28;20123;-58
2021/12/17 05:05:36;;;;;;;34.42;13.13;;;;;;;;;;5029118;28;20048;-56
2021/12/17 05:08:07;;;;;;;30.20;11.00;;;;;;;;;;5029576;28;20037;-58
2021/12/17 05:19:02;;;;;;;;;;;8.90;99.90;;;;;;5029908;28;20042;-57
2021/12/17 05:21:28;;;;;;;30.15;11.75;;;;;;;;;;5021284;28;19923;-56
2021/12/17 05:23:54;;;;;;;22.83;9.32;;;;;;;;;;5029731;28;20496;-58
2021/12/17 05:26:21;;;;;;;23.27;10.13;;;;;;;;;;5032558;28;20086;-58
2021/12/17 05:28:51;;;;;;;32.28;11.60;;;8.80;99.90;;;;;;5033342;28;20033;-57
2021/12/17 05:31:21;;;;;;;22.02;10.07;;;;;;;;;;5034323;28;20041;-57
2021/12/17 05:33:48;;;;;;;26.30;9.77;;;;;;;;;;5015124;28;20583;-57
2021/12/17 05:36:14;;;;;;;28.52;10.85;;;;;;;;;;5032090;28;20124;-58
2021/12/17 05:38:40;;;;;;;32.78;11.55;;;;;;;;;;5033384;28;20048;-58
2021/12/17 05:41:06;;;;;;;26.52;11.38;;;;;;;;;;5032941;28;20049;-58
2021/12/17 05:43:36;;;;;;;30.73;10.10;;;;;;;;;;5032904;28;20499;-58
2021/12/17 05:46:09;;;;;;;25.65;10.27;;;;;;;;;;5032622;28;20041;-58
2021/12/17 05:48:35;;;;;;;24.00;10.95;;;;;;;;;;5033500;22;20046;-73
2021/12/17 05:51:05;;;;;;;26.60;11.38;;;8.90;99.90;;;;;;5075207;22;20489;-57
2021/12/17 05:53:31;;;;;;;25.50;10.25;;;;;;;;;;5068166;28;20037;-56
2021/12/17 05:55:57;;;;;;;29.90;11.65;;;9.10;99.90;;;;;;5067128;28;20556;-57
2021/12/17 05:58:23;;;;;;;26.13;11.38;;;;;;;;;;5060339;28;20119;-57
2021/12/17 06:00:49;;;;;;;25.00;10.77;;;8.80;99.90;;;;;;5066859;28;20024;-58
2021/12/17 06:03:17;;;;;;;27.30;11.23;;;;;;;;;;5065514;28;20063;-58
2021/12/17 06:05:44;;;;;;;30.58;11.85;;;;;;;;;;5067561;28;20056;-57
2021/12/17 06:08:10;;;;;;;30.08;11.93;;;;;;;;;;5061879;28;20057;-56
2021/12/17 06:10:36;;;;;;;24.15;10.90;;;;;;;;;;5067755;28;20585;-57
2021/12/17 06:13:02;;;;;;;28.95;10.60;;;;;;;;;;5063518;28;20041;-58
2021/12/17 06:15:28;;;;;;;22.98;9.85;;;;;;;;;;5058318;28;20032;-59
2021/12/17 06:17:54;;;;;;;25.67;10.20;;;;;;;;;;5050619;28;20041;-59
2021/12/17 06:20:20;;;;;;;26.00;11.38;;;;;;;;;;5052588;28;20044;-58
2021/12/17 06:22:50;;;;;;;26.90;11.65;;;8.50;99.90;;;;;;5063913;28;20178;-58
2021/12/17 06:25:17;;;;;;;24.98;10.80;;;;;;;;;;5065020;28;20040;-58
2021/12/17 06:27:43;;;;;;;27.45;11.32;;;;;;;;;;5073517;28;20040;-57
2021/12/17 06:30:11;;;;;;;27.35;11.80;;;;;;;;;;5038004;28;20041;-58
2021/12/17 06:32:37;;;;;;;32.38;12.30;;;;;;;;;;5053279;28;20167;-58
2021/12/17 06:35:05;;;;;;;29.35;11.35;;;8.70;99.90;;;;;;5034719;28;20048;-58
2021/12/17 06:37:33;;;;;;;28.17;11.88;;;;;;;;;;5053639;28;20044;-58
2021/12/17 06:39:59;;;;;;;31.13;11.07;;;;;;;;;;5052264;28;20521;-58
2021/12/17 06:42:26;;;;;;;29.48;13.02;;;;;;;;;;5053490;28;20099;-58
2021/12/17 06:44:56;;;;;;;30.00;11.07;;;;;;;;;;5049217;28;20243;-58
2021/12/17 06:47:29;;;;;;;30.65;12.07;;;;;;;;;;5055611;28;20060;-57
2021/12/17 07:01:14;;;;;;;29.88;12.00;;;8.70;99.90;;;;;;5058795;28;20048;-58
2021/12/17 07:22:21;;;;;;;31.02;13.20;;;;;;;;;;5039129;28;20463;-58
2021/12/17 07:32:41;;;;;;;34.22;12.70;;;8.80;99.90;;;;;;5051005;28;20095;-57
2021/12/17 07:40:04;;;;;;;28.80;13.02;;;;;;;;;;5052130;28;20091;-56
2021/12/17 07:42:30;;;;;;;27.80;11.57;;;;;;;;;;5050919;28;20064;-57
2021/12/17 07:44:56;;;;;;;25.83;11.85;;;9.10;99.90;;;;;;5049482;28;20037;-57
2021/12/17 07:47:22;;;;;;;28.48;12.05;;;;;;;;;;5050560;28;20441;-56
2021/12/17 07:49:48;;;;;;;28.95;12.70;;;;;;;;;;5050902;28;20418;-56
2021/12/17 07:52:13;;;;;;;32.42;13.63;;;8.90;99.90;;;;;;5033419;28;20040;-56
2021/12/17 07:54:39;;;;;;;32.42;13.25;;;8.90;99.90;;;;;;5050466;28;20352;-55
2021/12/17 07:57:05;;;;;;;26.02;13.15;;;9.00;99.90;;;;;;5049781;28;20029;-58
2021/12/17 07:59:30;;;;;;;26.73;12.02;;;8.80;99.90;;;;;;5048772;28;20051;-57
2021/12/17 08:01:56;;;;;;;26.33;11.82;;;9.10;99.90;;;;;;5048483;28;20091;-57
2021/12/17 08:04:23;;;;;;;26.52;13.18;;;;;;;;;;5029035;28;20048;-57
2021/12/17 08:06:48;;;;;;;25.83;12.18;;;9.10;99.90;;;;;;5049354;28;20411;-58
2021/12/17 08:09:14;;;;;;;30.77;12.25;;;9.00;99.90;;;;;;5049198;28;20041;-57
2021/12/17 08:11:40;;;;;;;27.13;12.50;;;;;;;;;;5049067;28;20609;-57
2021/12/17 08:14:16;;;;;;;23.23;11.73;;;;;;;;;;5049023;28;20033;-57
2021/12/17 08:23:22;;;;;;;25.70;11.35;;;;;;;;;;5050920;28;20044;-56
2021/12/17 08:25:13;;;;;;;26.08;11.77;;;;;;;;;;5049479;28;20044;-57
2021/12/17 08:32:42;;;;;;;21.70;10.50;;;9.10;99.90;;;;;;5049888;28;20141;-60
2021/12/17 08:35:09;;;;;;;24.08;11.52;;;;;;;;;;5049604;28;20060;-58
2021/12/17 08:37:36;;;;;;;23.13;11.10;;;;;;;;;;5050206;28;20107;-58
2021/12/17 08:40:03;;;;;;;22.08;10.55;;;;;;;;;;5050648;28;20468;-57
2021/12/17 08:42:29;;;;;;;23.67;10.20;;;;;;;;;;5032787;28;20088;-58
2021/12/17 08:44:55;;;;;;;22.15;9.75;;;9.10;99.90;;;;;;5048656;28;20076;-57
2021/12/17 08:47:21;;;;;;;19.27;10.10;;;;;;;;;;5050326;28;20120;-56
2021/12/17 08:49:49;;;;;;;19.50;9.85;;;;;;;;;;5049792;28;20080;-58
2021/12/17 08:52:15;;;;;;;20.15;11.18;;;;;;;;;;5049552;28;20491;-56
2021/12/17 08:54:41;;;;;;;20.98;9.82;;;9.40;99.90;;;;;;5048362;28;20154;-57
2021/12/17 08:57:07;;;;;;;14.27;8.25;;;;;;;;;;5049722;28;20111;-58
2021/12/17 08:59:33;;;;;;;18.35;8.80;;;;;;;;;;5048003;28;20192;-56
2021/12/17 09:01:59;;;;;;;19.48;8.93;;;;;;;;;;5050266;28;20033;-57
2021/12/17 09:04:27;;;;;;;23.08;9.77;;;;;;;;;;5049159;28;20041;-58
2021/12/17 09:06:54;;;;;;;21.90;9.57;;;;;;;;;;5031931;28;20044;-58
2021/12/17 09:09:21;;;;;;;20.25;9.27;;;;;;;;;;5049529;28;20045;-58
2021/12/17 09:11:47;;;;;;;18.48;9.65;;;;;;;;;;5048478;28;20049;-57
2021/12/17 09:14:13;;;;;;;19.92;9.50;;;;;;;;;;5049365;28;20112;-57
2021/12/17 09:16:39;;;;;;;19.52;9.85;;;;;;;;;;5049422;28;20037;-58
2021/12/17 09:19:07;;;;;;;19.63;9.60;;;9.30;99.90;;;;;;5049016;28;20033;-57
2021/12/17 09:21:33;;;;;;;18.25;9.60;;;;;;;;;;5049415;28;20379;-57
2021/12/17 09:23:59;;;;;;;21.15;9.82;;;;;;;;;;5049902;28;20036;-57
2021/12/17 09:26:25;;;;;;;18.15;9.88;;;9.40;99.90;;;;;;5049002;28;20118;-57
2021/12/17 09:28:51;;;;;;;15.48;7.85;;;;;;;;;;5047133;28;20495;-58
2021/12/17 09:31:17;;;;;;;14.80;7.88;;;;;;;;;;5049486;28;20102;-56
2021/12/17 09:33:46;;;;;;;16.50;8.13;;;9.00;99.90;;;;;;5048428;28;20048;-58
2021/12/17 09:36:12;;;;;;;14.07;6.43;;;;;;;;;;5048780;28;20037;-56
2021/12/17 09:38:38;;;;;;;14.50;7.25;;;;;;;;;;5049743;28;20069;-57
2021/12/17 09:41:05;;;;;;;13.90;7.05;;;;;;;;;;5049112;28;20068;-58
2021/12/17 09:43:32;;;;;;;17.38;7.68;;;9.60;99.90;;;;;;5049759;28;20060;-57
2021/12/17 09:45:58;;;;;;;14.13;7.13;;;;;;;;;;5047005;28;20049;-58
2021/12/17 09:48:25;;;;;;;13.07;6.28;;;;;;;;;;5049864;28;20069;-55
2021/12/17 09:50:52;;;;;;;14.85;7.00;;;9.60;99.90;;;;;;5048400;28;20037;-57
2021/12/17 09:53:19;;;;;;;16.00;6.75;;;;;;;;;;5050038;28;20049;-57
2021/12/17 09:55:45;;;;;;;12.57;6.43;;;;;;;;;;5048738;28;20048;-57
2021/12/17 09:58:11;;;;;;;16.40;7.18;;;;;;;;;;5030514;28;20418;-57
2021/12/17 10:00:37;;;;;;;13.35;6.00;;;;;;;;;;5049232;28;20029;-57
2021/12/17 10:03:07;;;;;;;11.95;6.35;;;;;;;;;;5049122;28;20045;-58
2021/12/17 10:05:34;;;;;;;12.07;6.07;;;;;;;;;;5042178;28;20041;-58
2021/12/17 10:08:02;;;;;;;14.55;6.07;;;;;;;;;;5049798;28;20044;-57
2021/12/17 10:10:45;;;;;;;14.48;7.80;;;9.70;99.90;;;;;;5014535;28;20091;-57
2021/12/17 10:13:21;;;;;;;15.15;8.25;;;;;;;;;;5018176;28;20507;-57
2021/12/17 10:15:52;;;;;;;10.50;5.70;;;;;;;;;;5052656;28;20052;-56
2021/12/17 10:18:18;;;;;;;8.68;4.93;;;;;;;;;;5035388;28;20049;-57
2021/12/17 10:20:59;;;;;;;10.57;5.32;;;9.70;99.90;;;;;;5052653;28;20115;-57
2021/12/17 10:23:28;;;;;;;10.07;5.13;;;;;;;;;;5053645;28;20442;-56
2021/12/17 10:25:54;;;;;;;8.32;4.28;;;;;;;;;;5051525;28;20049;-57
2021/12/17 10:28:20;;;;;;;8.90;4.68;;;9.60;99.90;;;;;;5052338;28;20048;-58
2021/12/17 10:30:47;;;;;;;8.38;4.40;;;;;;;;;;5053417;28;20037;-57
2021/12/17 10:33:20;;;;;;;7.65;3.85;;;10.00;99.90;;;;;;5034602;28;20040;-58
2021/12/17 10:35:48;;;;;;;10.68;4.78;;;;;;;;;;5052535;28;20407;-57
2021/12/17 10:38:17;;;;;;;9.52;4.90;;;;;;;;;;5052196;28;20041;-58
2021/12/17 10:40:56;;;;;;;8.32;4.07;;;9.60;99.90;;;;;;5052128;28;20037;-58
2021/12/17 10:43:28;;;;;;;7.43;4.22;;;9.80;99.90;;;;;;5034339;28;20102;-56
2021/12/17 10:46:11;;;;;;;6.85;3.95;;;;;;;;;;5050865;28;20044;-58
2021/12/17 10:48:50;;;;;;;6.78;3.88;;;9.50;99.90;;;;;;5052157;28;20116;-58
2021/12/17 10:51:34;;;;;;;7.28;3.40;;;9.90;99.90;;;;;;5051827;28;20037;-57
2021/12/17 10:54:03;;;;;;;6.10;3.42;;;;;;;;;;5052351;28;20037;-58
2021/12/17 10:56:37;;;;;;;6.72;3.70;;;;;;;;;;5052572;28;20091;-58
2021/12/17 10:59:05;;;;;;;7.22;4.07;;;;;;;;;;5051446;28;20366;-58
2021/12/17 11:01:33;;;;;;;6.90;4.10;;;10.70;99.90;;;;;;5052085;28;20414;-58
2021/12/17 11:04:25;;;;;;;6.78;4.28;;;;;;;;;;5051650;28;20080;-57
2021/12/17 11:07:02;;;;;;;8.43;4.03;;;;;;;;;;5049183;28;20410;-58
2021/12/17 11:09:45;;;;;;;6.65;3.83;;;9.90;99.90;;;;;;5052183;28;20216;-57
2021/12/17 11:12:12;;;;;;;7.40;4.00;;;10.10;99.90;;;;;;5052368;28;20029;-58
2021/12/17 11:14:42;;;;;;;8.68;4.47;;;9.90;99.90;;;;;;5050943;28;20045;-58
2021/12/17 11:17:12;;;;;;;8.00;4.38;;;10.00;99.90;;;;;;5050630;28;20047;-57
2021/12/17 11:19:40;;;;;;;9.10;4.55;;;9.90;99.90;;;;;;5057382;28;20033;-58
2021/12/17 11:22:06;;;;;;;8.50;5.47;;;;;;;;;;5061650;28;20025;-58
2021/12/17 11:24:33;;;;;;;8.57;4.60;;;;;;;;;;5058689;28;20056;-58
2021/12/17 11:27:01;;;;;;;8.93;5.47;;;;;;;;;;5052259;28;20430;-55
2021/12/17 11:29:27;;;;;;;8.55;5.10;;;;;;;;;;5051893;28;20140;-54
2021/12/17 11:31:53;;;;;;;8.50;5.07;;;;;;;;;;5051647;28;20499;-55
2021/12/17 11:34:19;;;;;;;11.15;5.55;;;;;;;;;;5052394;28;20051;-57
2021/12/17 11:36:45;;;;;;;8.60;5.25;;;10.20;99.90;;;;;;5066299;28;20478;-56
2021/12/17 11:39:17;;;;;;;9.15;5.50;;;10.30;99.90;;;;;;5054387;28;20040;-55
2021/12/17 11:41:44;;;;;;;8.00;4.90;;;;;;;;;;5055919;28;20033;-57
2021/12/17 11:44:12;;;;;;;8.30;4.60;;;;;;;;;;5055893;28;20047;-57
2021/12/17 11:46:39;;;;;;;8.18;5.00;;;;;;;;;;5046288;28;20070;-57
2021/12/17 11:49:10;;;;;;;10.07;5.47;;;;;;;;;;5066301;28;20052;-57
2021/12/17 11:51:36;;;;;;;9.20;5.40;;;10.40;99.90;;;;;;5063038;28;20131;-57
2021/12/17 11:54:05;;;;;;;8.80;5.53;;;;;;;;;;5056149;28;20120;-57
2021/12/17 11:56:35;;;;;;;8.82;4.68;;;10.30;99.90;;;;;;5050979;28;20048;-56
2021/12/17 11:59:01;;;;;;;10.43;6.35;;;;;;;;;;5050642;28;20421;-57
2021/12/17 12:01:46;;;;;;;8.65;5.05;;;;;;;;;;5043108;28;20041;-57
2021/12/17 12:04:30;;;;;;;8.45;5.30;;;;;;;;;;5050256;28;20056;-57
2021/12/17 12:07:05;;;;;;;8.73;4.95;;;9.70;99.90;;;;;;5051461;28;20511;-56
2021/12/17 12:09:58;;;;;;;7.32;4.22;;;;;;;;;;5049071;28;20116;-56
2021/12/17 12:12:24;;;;;;;9.00;5.20;;;;;;;;;;5032074;28;20497;-58
2021/12/17 12:14:50;;;;;;;7.88;4.93;;;;;;;;;;5050219;28;20037;-57
2021/12/17 12:17:37;;;;;;;9.13;5.10;;;;;;;;;;5049950;28;20037;-56
2021/12/17 12:20:03;;;;;;;9.10;5.13;;;;;;;;;;5020910;28;20102;-56
2021/12/17 12:22:30;;;;;;;8.23;4.60;;;10.70;99.90;;;;;;5049956;28;20491;-58
2021/12/17 12:25:15;;;;;;;9.63;4.95;;;;;;;;;;5050377;28;20064;-57
2021/12/17 12:27:47;;;;;;;8.05;4.93;;;;;;;;;;5044094;28;20590;-56
2021/12/17 12:30:14;;;;;;;8.65;5.00;;;;;;;;;;5049862;28;20041;-57
2021/12/17 12:33:08;;;;;;;7.25;4.35;;;10.10;99.90;;;;;;5033347;28;20495;-57
2021/12/17 12:35:35;;;;;;;8.07;5.17;;;10.50;99.90;;;;;;5042912;28;20058;-57
2021/12/17 12:38:19;;;;;;;9.50;4.72;;;10.20;99.90;;;;;;5050001;28;20279;-59
2021/12/17 12:40:54;;;;;;;8.13;4.97;;;;;;;;;;5049958;28;20503;-57
2021/12/17 12:43:24;;;;;;;9.15;5.68;;;;;;;;;;5048863;28;20044;-57
2021/12/17 12:45:50;;;;;;;9.77;4.93;;;;;;;;;;5048752;28;20069;-57
2021/12/17 12:48:29;;;;;;;10.63;5.40;;;;;;;;;;5050330;28;20210;-58
2021/12/17 12:51:13;;;;;;;9.77;5.47;;;;;;;;;;5016001;28;20063;-57
2021/12/17 12:53:59;;;;;;;8.82;5.13;;;9.80;99.90;;;;;;5049271;28;20056;-57
2021/12/17 12:56:24;;;;;;;6.68;3.78;;;10.30;99.90;;;;;;5049287;28;20035;-56
2021/12/17 12:58:53;;;;;;;7.82;4.00;;;;;;;;;;5032585;28;20469;-56
2021/12/17 13:01:20;;;;;;;7.43;4.18;;;;;;;;;;5049640;28;20037;-58
2021/12/17 13:03:46;;;;;;;7.35;4.03;;;;;;;;;;5050179;28;20041;-58
2021/12/17 13:06:20;;;;;;;6.95;3.80;;;;;;;;;;5049590;28;20191;-57
2021/12/17 13:08:59;;;;;;;7.88;4.30;;;;;;;;;;5049626;28;20037;-57
2021/12/17 13:11:26;;;;;;;7.03;4.10;;;10.20;99.90;;;;;;5049020;28;20063;-57
2021/12/17 13:13:58;;;;;;;7.38;4.03;;;10.20;99.90;;;;;;5049742;28;20510;-57
2021/12/17 13:24:15;;;;;;;11.00;5.47;;;10.10;99.90;;;;;;5049679;28;20091;-58
2021/12/17 13:26:45;;;;;;;7.97;4.57;;;10.20;99.90;;;;;;5049206;28;20457;-56
2021/12/17 13:29:23;;;;;;;10.32;3.60;;;10.40;99.90;;;;;;5049660;28;20048;-59
2021/12/17 13:32:01;;;;;;;6.38;3.60;;;10.40;99.90;;;;;;5051420;28;20522;-57
2021/12/17 13:34:29;;;;;;;6.90;3.20;;;;;;;;;;5048450;28;20083;-57
2021/12/17 13:37:03;;;;;;;6.88;3.58;;;9.80;99.90;;;;;;5048957;28;20124;-58
2021/12/17 13:39:38;;;;;;;5.95;2.72;;;10.00;99.90;;;;;;5048229;28;20041;-58
2021/12/17 13:42:05;;;;;;;5.68;2.85;;;;;;;;;;5049438;28;20120;-57
2021/12/17 13:44:32;;;;;;;6.38;3.33;;;;;;;;;;5047237;28;20135;-59
2021/12/17 13:47:16;;;;;;;6.47;3.80;;;10.30;99.90;;;;;;5050944;28;20063;-57
2021/12/17 13:49:46;;;;;;;6.93;3.38;;;;;;;;;;5052870;28;20466;-57
2021/12/17 13:52:13;;;;;;;6.65;3.30;;;;;;;;;;5053290;28;20079;-56
2021/12/17 13:54:39;;;;;;;7.60;4.80;;;10.30;99.90;;;;;;5051234;28;20080;-56
2021/12/17 13:57:06;;;;;;;9.00;5.38;;;10.20;99.90;;;;;;5052894;28;20533;-58
2021/12/17 13:59:33;;;;;;;6.38;3.88;;;;;;;;;;5052420;28;20044;-55
2021/12/17 14:02:06;;;;;;;7.20;4.28;;;;;;;;;;5052423;28;20048;-58
2021/12/17 14:04:31;;;;;;;6.80;3.30;;;10.10;99.90;;;;;;5032400;28;20103;-56
2021/12/17 14:07:04;;;;;;;7.97;3.65;;;10.30;99.90;;;;;;5033571;28;20049;-55
2021/12/17 14:09:30;;;;;;;7.18;3.53;;;;;;;;;;5044763;28;20414;-57
2021/12/17 14:11:58;;;;;;;6.10;3.40;;;;;;;;;;5052865;28;20049;-57
2021/12/17 14:14:25;;;;;;;6.88;3.83;;;;;;;;;;5051836;28;20045;-57
2021/12/17 14:16:59;;;;;;;6.40;3.50;;;;;;;;;;5052239;28;20045;-56
2021/12/17 14:19:41;;;;;;;6.82;4.13;;;;;;;;;;5052755;28;20040;-55
2021/12/17 14:22:27;;;;;;;8.55;5.00;;;;;;;;;;5052625;28;20037;-59
2021/12/17 14:24:54;;;;;;;8.00;4.78;;;;;;;;;;5047230;28;20128;-58
2021/12/17 14:27:20;;;;;;;6.97;4.10;;;;;;;;;;5051300;28;20049;-59
2021/12/17 14:29:48;;;;;;;5.63;3.08;;;;;;;;;;5052503;28;20048;-58
2021/12/17 14:32:18;;;;;;;7.03;3.90;;;;;;;;;;5052909;28;20045;-59
2021/12/17 14:34:44;;;;;;;6.22;3.60;;;10.10;99.90;;;;;;5051528;28;20040;-58
2021/12/17 14:37:10;;;;;;;7.22;4.13;;;;;;;;;;5051543;28;20575;-59
2021/12/17 14:39:39;;;;;;;8.07;4.75;;;;;;;;;;5051663;28;20132;-56
2021/12/17 14:42:07;;;;;;;7.28;4.03;;;;;;;;;;5052033;28;20108;-58
2021/12/17 14:47:15;;;;;;;6.88;4.03;;;;;;;;;;5051748;28;20076;-59
2021/12/17 15:00:34;;;;;;;8.18;5.10;;;10.50;99.90;;;;;;5051921;28;20041;-57
2021/12/17 15:03:19;;;;;;;8.85;5.22;;;10.10;99.90;;;;;;5050781;28;20040;-58
2021/12/17 15:05:46;;;;;;;9.15;5.68;;;;;;;;;;5045678;28;20418;-59
2021/12/17 15:08:12;;;;;;;9.77;5.22;;;10.00;99.90;;;;;;5049597;28;20414;-59
2021/12/17 15:10:38;;;;;;;8.20;5.07;;;10.10;99.90;;;;;;5033871;28;20037;-59
2021/12/17 15:13:05;;;;;;;8.05;5.18;;;10.00;99.90;;;;;;5051755;28;20040;-57
2021/12/17 15:15:36;;;;;;;10.13;5.60;;;;;;;;;;5032256;28;20223;-57
2021/12/17 15:18:03;;;;;;;10.00;5.57;;;;;;;;;;5051534;28;20122;-59
2021/12/17 15:20:33;;;;;;;9.30;5.82;;;9.20;99.90;;;;;;5040371;28;20033;-58
2021/12/17 15:23:00;;;;;;;9.70;5.03;;;;;;;;;;5050830;28;20119;-58
2021/12/17 15:25:27;;;;;;;9.60;5.53;;;;;;;;;;5049656;28;20037;-58
2021/12/17 15:27:53;;;;;;;10.27;5.50;;;9.70;99.90;;;;;;5051519;28;20041;-58
2021/12/17 15:30:34;;;;;;;9.88;5.55;;;9.30;99.90;;;;;;5051887;28;20262;-58
2021/12/17 15:33:00;;;;;;;8.02;4.85;;;;;;;;;;5051624;28;20080;-57
2021/12/17 15:35:27;;;;;;;9.52;4.72;;;;;;;;;;5031549;28;20255;-58
2021/12/17 15:37:54;;;;;;;8.95;5.35;;;;;;;;;;5051433;28;20048;-59
2021/12/17 15:40:20;;;;;;;8.65;5.30;;;10.00;99.90;;;;;;5050424;28;20403;-58
2021/12/17 15:42:47;;;;;;;9.60;5.82;;;;;;;;;;5050917;28;20040;-59
2021/12/17 15:45:13;;;;;;;9.48;5.53;;;;;;;;;;5049611;28;20055;-59
2021/12/17 15:47:40;;;;;;;8.65;5.05;;;;;;;;;;5050882;28;20037;-58
2021/12/17 15:50:06;;;;;;;8.85;4.82;;;;;;;;;;5050194;28;20338;-58
2021/12/17 15:52:44;;;;;;;10.18;5.30;;;;;;;;;;5050667;28;20037;-58
2021/12/17 15:55:10;;;;;;;10.18;6.15;;;;;;;;;;5049743;28;20045;-59
2021/12/17 15:57:36;;;;;;;9.52;5.50;;;;;;;;;;5050837;28;20087;-58
2021/12/17 16:00:02;;;;;;;9.93;5.60;;;;;;;;;;5050380;28;20036;-59
2021/12/17 16:02:28;;;;;;;8.73;5.32;;;;;;;;;;5047148;28;20578;-57
2021/12/17 16:04:55;;;;;;;9.02;5.43;;;;;;;;;;5062176;28;20036;-59
2021/12/17 16:07:21;;;;;;;10.75;5.57;;;;;;;;;;5065121;28;20059;-59
2021/12/17 16:23:39;;;;;;;10.75;5.65;;;;;;;;;;5064409;28;20293;-58
2021/12/17 16:26:06;;;;;;;10.27;6.13;;;;;;;;;;5067947;28;20045;-58
2021/12/17 16:28:33;;;;;;;12.55;7.43;;;;;;;;;;5053791;28;20041;-60
2021/12/17 16:31:18;;;;;;;16.27;7.05;;;;;;;;;;5047994;28;20045;-60
2021/12/17 16:33:44;;;;;;;14.82;6.80;;;;;;;;;;5049448;28;20045;-60
2021/12/17 16:36:10;;;;;;;13.13;6.70;;;;;;;;;;5050310;28;20246;-59
2021/12/17 16:38:37;;;;;;;15.77;8.05;;;10.10;99.90;;;;;;5050335;28;20076;-60
2021/12/17 16:41:04;;;;;;;17.13;8.18;;;9.70;99.90;;;;;;5050436;28;20327;-58
2021/12/17 16:43:30;;;;;;;21.10;8.70;;;9.50;99.90;;;;;;5050539;28;20037;-58
2021/12/17 16:46:23;;;;;;;18.30;8.90;;;9.60;99.90;;;;;;5049659;28;20437;-56
2021/12/17 16:48:49;;;;;;;18.40;8.73;;;;;;;;;;5031995;28;20072;-56
2021/12/17 16:51:16;;;;;;;16.70;9.00;;;;;;;;;;5049605;28;20041;-58
2021/12/17 16:53:47;;;;;;;19.90;9.75;;;;;;;;;;5049404;28;20596;-59
2021/12/17 16:56:13;;;;;;;16.45;10.05;;;;;;;;;;5049326;28;20162;-58
2021/12/17 16:58:39;;;;;;;16.38;8.90;;;9.60;99.90;;;;;;5049841;28;20037;-59
2021/12/17 17:01:05;;;;;;;15.52;9.13;;;9.50;99.90;;;;;;5049543;28;20044;-60
2021/12/17 17:03:31;;;;;;;16.88;9.65;;;9.60;99.90;;;;;;5049183;28;20040;-60
2021/12/17 17:05:57;;;;;;;18.55;9.00;;;9.40;99.90;;;;;;5049057;28;20048;-60
2021/12/17 17:08:23;;;;;;;17.15;9.60;;;;;;;;;;5050183;28;20037;-59
2021/12/17 17:10:56;;;;;;;19.33;9.13;;;;;;;;;;5049768;28;20376;-58
2021/12/17 17:13:23;;;;;;;14.45;7.15;;;9.50;99.90;;;;;;5049073;28;20049;-57
2021/12/17 17:15:50;;;;;;;14.48;8.90;;;;;;;;;;5049000;28;20040;-58
2021/12/17 17:18:18;;;;;;;15.52;8.65;;;;;;;;;;5048952;28;20043;-58
2021/12/17 17:20:44;;;;;;;16.38;8.80;;;9.10;99.90;;;;;;5048767;28;20045;-60
2021/12/17 17:23:10;;;;;;;17.90;9.10;;;;;;;;;;5049526;28;20527;-58
2021/12/17 17:25:36;;;;;;;13.73;8.35;;;;;;;;;;5048601;28;20040;-57
2021/12/17 17:28:05;;;;;;;16.90;8.45;;;;;;;;;;5049711;28;20182;-59